Time;durP1;ratioP1;P1;durP2;ratioP2;P2;SDS_P1;SDS_P2;PMS_P1;PMS_P2;Temp;Humidity;BMP_temperature;BMP_pressure;BME280_temperature;BME280_humidity;BME280_pressure;Samples;Min_cycle;Max_cycle;Signal;HPM_P1;HPM_P2
2021/12/07 00:01:42;;;;;;;66.53;37.70;;;;;;;-1.08;100.00;100753.31;4889723;29;20036;-76
2021/12/07 00:04:09;;;;;;;66.38;36.67;;;;;;;-1.15;100.00;100751.94;4873199;29;20052;-78
2021/12/07 00:06:36;;;;;;;68.97;37.72;;;;;;;-1.14;100.00;100757.00;4875923;29;20566;-77
2021/12/07 00:09:09;;;;;;;68.30;38.63;;;;;;;-1.13;100.00;100750.97;4877571;29;20607;-76
2021/12/07 00:11:36;;;;;;;72.70;38.80;;;;;;;-1.23;100.00;100755.69;4877977;29;20044;-76
2021/12/07 00:14:11;;;;;;;71.72;38.53;;;;;;;-1.14;100.00;100745.88;4866287;29;20044;-76
2021/12/07 00:16:36;;;;;;;69.90;36.67;;;;;;;-1.19;100.00;100741.78;4878636;29;20139;-76
2021/12/07 00:19:03;;;;;;;68.45;37.67;;;;;;;-1.19;100.00;100743.50;4895134;29;20793;-76
2021/12/07 00:21:30;;;;;;;68.75;37.63;;;;;;;-1.21;100.00;100735.84;4876131;29;20576;-76
2021/12/07 00:23:55;;;;;;;71.13;38.72;;;;;;;-1.16;100.00;100735.66;4892469;29;20036;-77
2021/12/07 00:26:21;;;;;;;68.22;36.78;;;;;;;-1.13;100.00;100730.38;4877070;29;20406;-77
2021/12/07 00:28:50;;;;;;;69.18;38.50;;;;;;;-1.20;100.00;100719.50;4890608;29;20037;-76
2021/12/07 00:31:34;;;;;;;70.78;36.67;;;;;;;-1.16;100.00;100711.66;4881513;29;20073;-77
2021/12/07 00:34:17;;;;;;;67.60;37.45;;;;;;;-1.21;100.00;100707.53;4883758;29;20391;-77
2021/12/07 00:36:46;;;;;;;74.75;40.33;;;;;;;-1.28;100.00;100711.34;4883420;29;20599;-76
2021/12/07 00:39:15;;;;;;;69.40;36.90;;;;;;;-1.28;100.00;100701.03;4871188;29;20041;-76
2021/12/07 00:41:40;;;;;;;72.40;39.78;;;;;;;-1.23;100.00;100701.63;4870142;29;20032;-76
2021/12/07 00:44:06;;;;;;;70.30;38.88;;;;;;;-1.21;100.00;100697.25;4862161;29;20047;-76
2021/12/07 00:46:33;;;;;;;67.68;37.90;;;;;;;-1.18;100.00;100694.53;4889709;29;20047;-77
2021/12/07 00:48:58;;;;;;;73.70;40.25;;;;;;;-1.24;100.00;100697.41;4888587;29;20111;-76
2021/12/07 00:51:24;;;;;;;72.32;39.60;;;;;;;-1.25;100.00;100695.72;4870641;29;20132;-76
2021/12/07 00:53:51;;;;;;;68.90;39.67;;;;;;;-1.30;100.00;100691.69;4872420;29;20044;-78
2021/12/07 00:56:17;;;;;;;73.72;40.67;;;;;;;-1.22;100.00;100700.75;4884682;29;20120;-77
2021/12/07 00:58:42;;;;;;;75.63;39.95;;;;;;;-1.26;100.00;100704.38;4854139;29;20029;-78
2021/12/07 01:01:12;;;;;;;72.47;39.80;;;;;;;-1.25;100.00;100700.03;4890636;29;20427;-77
2021/12/07 01:03:39;;;;;;;76.47;40.53;;;;;;;-1.23;100.00;100704.22;4887328;29;20036;-78
2021/12/07 01:06:23;;;;;;;74.50;39.67;;;;;;;-1.20;100.00;100690.38;4873415;29;20525;-75
2021/12/07 01:08:59;;;;;;;79.72;40.50;;;;;;;-1.25;100.00;100695.72;4872176;29;20923;-76
2021/12/07 01:25:20;;;;;;;77.90;41.95;;;;;;;-1.26;100.00;100688.94;4887365;29;20521;-77
2021/12/07 01:27:49;;;;;;;80.00;43.00;;;;;;;-1.26;100.00;100688.06;4873612;29;20565;-76
2021/12/07 01:30:23;;;;;;;77.20;42.75;;;;;;;-1.23;100.00;100690.50;4884718;29;20669;-77
2021/12/07 01:38:19;;;;;;;76.43;40.75;;;;;;;-1.31;100.00;100680.59;4867979;29;20033;-77
2021/12/07 01:41:05;;;;;;;77.88;43.33;;;;;;;-1.24;100.00;100681.97;4888594;29;20036;-77
2021/12/07 02:01:49;;;;;;;81.30;43.22;;;;;;;-1.28;100.00;100662.44;4870538;29;20036;-77
2021/12/07 02:04:15;;;;;;;80.43;42.92;;;;;;;-1.26;100.00;100663.19;4872350;29;20044;-77
2021/12/07 02:06:41;;;;;;;83.32;42.15;;;;;;;-1.28;100.00;100651.28;4867345;29;20108;-74
2021/12/07 02:09:11;;;;;;;79.53;42.60;;;;;;;-1.28;100.00;100659.84;4858329;29;20748;-75
2021/12/07 02:11:45;;;;;;;82.95;42.97;;;;;;;-1.31;100.00;100661.75;4886278;29;20075;-75
2021/12/07 02:14:17;;;;;;;78.97;42.38;;;;;;;-1.27;100.00;100655.53;4858041;29;20085;-76
2021/12/07 02:16:52;;;;;;;80.40;42.75;;;;;;;-1.34;100.00;100642.13;4875062;29;20036;-75
2021/12/07 02:19:19;;;;;;;80.28;41.35;;;;;;;-1.32;100.00;100650.59;4876466;29;20044;-76
2021/12/07 02:21:45;;;;;;;83.90;43.28;;;;;;;-1.31;100.00;100652.28;4877829;29;20071;-75
2021/12/07 02:24:19;;;;;;;77.40;42.10;;;;;;;-1.34;100.00;100647.25;4878568;29;20059;-74
2021/12/07 02:26:47;;;;;;;72.47;41.97;;;;;;;-1.29;100.00;100657.34;4878034;29;20805;-75
2021/12/07 02:29:14;;;;;;;78.47;42.90;;;;;;;-1.27;100.00;100664.09;4891137;29;20053;-76
2021/12/07 02:31:40;;;;;;;81.20;42.47;;;;;;;-1.38;100.00;100653.47;4887305;29;20038;-75
2021/12/07 02:34:06;;;;;;;79.68;42.00;;;;;;;-1.41;100.00;100661.34;4877083;29;20040;-75
2021/12/07 02:36:33;;;;;;;79.15;43.00;;;;;;;-1.46;100.00;100665.88;4878464;29;20068;-76
2021/12/07 02:39:00;;;;;;;82.78;43.03;;;;;;;-1.46;100.00;100669.25;4894262;29;20036;-75
2021/12/07 02:41:26;;;;;;;78.95;42.75;;;;;;;-1.34;100.00;100673.00;4875150;29;20050;-76
2021/12/07 02:43:51;;;;;;;80.15;42.55;;;;;;;-1.44;100.00;100677.75;4893018;29;20032;-74
2021/12/07 02:46:17;;;;;;;85.57;44.67;;;;;;;-1.54;100.00;100660.22;4877990;29;20044;-75
2021/12/07 02:48:43;;;;;;;84.82;44.03;;;;;;;-1.40;100.00;100679.25;4862764;29;20089;-75
2021/12/07 02:51:11;;;;;;;80.80;41.85;;;;;;;-1.42;100.00;100685.41;4889910;29;20085;-74
2021/12/07 02:53:37;;;;;;;83.68;43.78;;;;;;;-1.50;100.00;100675.47;4898880;29;20251;-75
2021/12/07 02:56:05;;;;;;;82.30;43.38;;;;;;;-1.44;100.00;100682.88;4875002;29;20085;-75
2021/12/07 02:58:35;;;;;;;82.18;43.72;;;;;;;-1.43;100.00;100686.28;4876794;29;20036;-76
2021/12/07 03:01:10;;;;;;;82.93;44.38;;;;;;;-1.37;100.00;100688.59;4877678;29;20032;-78
2021/12/07 03:03:52;;;;;;;88.30;44.70;;;;;;;-1.35;100.00;100680.81;4874725;29;20040;-77
2021/12/07 03:27:57;;;;;;;86.63;44.30;;;;;;;-1.27;100.00;100694.97;4892639;29;20491;-75
2021/12/07 03:30:24;;;;;;;82.47;43.00;;;;;;;-1.24;100.00;100689.69;4859598;29;20033;-76
2021/12/07 03:32:51;;;;;;;81.82;43.42;;;;;;;-1.16;100.00;100691.91;4860796;29;20537;-76
2021/12/07 03:35:18;;;;;;;85.07;44.22;;;;;;;-1.07;100.00;100693.22;4882999;29;20064;-76
2021/12/07 03:37:43;;;;;;;87.18;45.60;;;;;;;-1.21;100.00;100694.66;4860422;29;20051;-76
2021/12/07 03:40:12;;;;;;;80.10;43.38;;;;;;;-1.21;100.00;100693.84;4860435;29;20630;-76
2021/12/07 03:42:38;;;;;;;79.55;42.65;;;;;;;-1.17;100.00;100692.78;4874007;29;20044;-75
2021/12/07 03:45:05;;;;;;;82.25;43.53;;;;;;;-1.07;100.00;100694.03;4859092;29;20048;-75
2021/12/07 03:47:32;;;;;;;78.30;42.63;;;;;;;-1.07;100.00;100695.78;4893266;29;20048;-76
2021/12/07 03:49:57;;;;;;;84.93;43.42;;;;;;;-1.01;100.00;100696.31;4887816;29;20051;-76
2021/12/07 03:52:23;;;;;;;79.03;43.22;;;;;;;-1.05;100.00;100702.53;4892321;29;20037;-76
2021/12/07 03:54:49;;;;;;;82.55;44.65;;;;;;;-1.12;100.00;100697.75;4862476;29;20043;-75
2021/12/07 03:57:15;;;;;;;79.20;41.55;;;;;;;-1.09;100.00;100701.00;4875332;29;20040;-76
2021/12/07 03:59:40;;;;;;;79.78;43.47;;;;;;;-1.13;100.00;100709.78;4892431;29;20032;-76
2021/12/07 04:02:07;;;;;;;86.88;45.67;;;;;;;-1.05;100.00;100706.84;4892471;29;20108;-75
2021/12/07 04:04:35;;;;;;;81.65;43.92;;;;;;;-1.12;100.00;100706.28;4876701;29;20040;-75
2021/12/07 04:07:01;;;;;;;86.38;45.20;;;;;;;-1.03;100.00;100707.59;4867858;29;20140;-75
2021/12/07 04:09:27;;;;;;;84.53;43.65;;;;;;;-1.04;100.00;100709.31;4859698;29;20056;-75
2021/12/07 04:11:54;;;;;;;84.43;44.10;;;;;;;-1.04;100.00;100716.22;4875904;29;20511;-77
2021/12/07 04:14:20;;;;;;;81.43;44.05;;;;;;;-0.99;100.00;100714.28;4871285;29;20507;-75
2021/12/07 04:16:46;;;;;;;76.95;42.88;;;;;;;-1.01;100.00;100716.91;4892618;29;20029;-76
2021/12/07 04:19:11;;;;;;;79.55;42.35;;;;;;;-0.96;100.00;100719.28;4866576;29;20037;-76
2021/12/07 04:21:37;;;;;;;80.53;42.22;;;;;;;-0.96;100.00;100716.72;4891513;29;20036;-76
2021/12/07 04:24:03;;;;;;;80.07;42.72;;;;;;;-0.94;100.00;100720.03;4892496;29;20063;-75
2021/12/07 04:26:31;;;;;;;78.82;43.53;;;;;;;-0.98;100.00;100719.34;4897459;29;20037;-76
2021/12/07 04:28:57;;;;;;;81.07;43.70;;;;;;;-0.95;100.00;100722.69;4860969;29;20025;-75
2021/12/07 04:31:22;;;;;;;78.72;42.47;;;;;;;-0.96;100.00;100721.84;4875371;29;20109;-76
2021/12/07 04:33:48;;;;;;;76.20;41.97;;;;;;;-0.98;100.00;100721.06;4888419;29;20063;-76
2021/12/07 04:36:13;;;;;;;79.28;42.05;;;;;;;-0.99;100.00;100722.00;4875017;29;20117;-76
2021/12/07 04:38:40;;;;;;;79.63;42.13;;;;;;;-0.95;100.00;100717.53;4891065;29;20063;-75
2021/12/07 04:41:07;;;;;;;80.07;42.97;;;;;;;-0.96;100.00;100715.84;4890936;29;20044;-76
2021/12/07 04:43:35;;;;;;;80.53;42.53;;;;;;;-0.94;100.00;100720.03;4877452;29;20103;-75
2021/12/07 04:59:38;;;;;;;75.47;40.60;;;;;;;-0.98;100.00;100719.34;4890136;29;20036;-77
2021/12/07 05:02:05;;;;;;;77.53;42.13;;;;;;;-0.87;100.00;100710.25;4892498;29;20032;-77
2021/12/07 05:04:33;;;;;;;76.93;41.35;;;;;;;-0.85;100.00;100719.59;4889832;29;20693;-75
2021/12/07 05:07:20;;;;;;;75.30;40.38;;;;;;;-0.94;100.00;100720.03;4890461;29;20050;-77
2021/12/07 05:14:39;;;;;;;72.32;41.25;;;;;;;-0.88;100.00;100719.75;4876695;29;20495;-75
2021/12/07 05:26:02;;;;;;;79.18;42.05;;;;;;;-0.87;100.00;100723.97;4888333;29;20040;-76
2021/12/07 05:39:13;;;;;;;74.00;40.58;;;;;;;-0.95;100.00;100714.97;4886831;29;20436;-76
2021/12/07 05:41:39;;;;;;;72.28;39.55;;;;;;;-0.88;100.00;100704.28;4889942;29;20068;-76
2021/12/07 05:44:05;;;;;;;76.75;39.72;;;;;;;-0.89;100.00;100701.78;4861193;29;20037;-77
2021/12/07 05:46:30;;;;;;;71.38;38.35;;;;;;;-0.90;100.00;100711.25;4876694;29;20807;-76
2021/12/07 05:48:57;;;;;;;69.53;39.30;;;;;;;-0.88;100.00;100709.44;4892676;29;20048;-77
2021/12/07 05:51:23;;;;;;;72.00;38.35;;;;;;;-0.87;100.00;100713.66;4896138;29;20037;-76
2021/12/07 05:53:49;;;;;;;72.10;38.30;;;;;;;-0.85;100.00;100716.16;4875178;29;20037;-76
2021/12/07 05:56:14;;;;;;;72.82;39.08;;;;;;;-0.86;100.00;100723.06;4897912;29;20073;-75
2021/12/07 05:58:40;;;;;;;66.70;37.25;;;;;;;-0.87;100.00;100725.72;4878338;29;20033;-75
2021/12/07 06:01:05;;;;;;;69.60;37.17;;;;;;;-0.83;100.00;100734.94;4896519;29;20550;-77
2021/12/07 06:03:31;;;;;;;76.15;39.15;;;;;;;-0.86;100.00;100737.69;4892163;29;20092;-76
2021/12/07 06:06:01;;;;;;;67.93;37.55;;;;;;;-0.92;100.00;100736.25;4893149;29;20044;-75
2021/12/07 06:08:27;;;;;;;71.97;36.92;;;;;;;-0.90;100.00;100738.75;4877060;29;20096;-77
2021/12/07 06:10:52;;;;;;;70.63;36.55;;;;;;;-0.90;100.00;100744.72;4894088;29;20036;-76
2021/12/07 06:13:18;;;;;;;67.68;37.13;;;;;;;-0.92;100.00;100740.53;4879172;29;20052;-75
2021/12/07 06:15:45;;;;;;;66.07;37.22;;;;;;;-0.91;100.00;100737.91;4880073;29;20526;-75
2021/12/07 06:18:12;;;;;;;66.57;37.28;;;;;;;-0.86;100.00;100742.84;4893043;29;20378;-76
2021/12/07 06:20:41;;;;;;;64.85;36.05;;;;;;;-0.85;100.00;100752.22;4893953;29;20068;-76
2021/12/07 06:23:06;;;;;;;68.10;37.22;;;;;;;-0.99;100.00;100751.13;4865358;29;20051;-75
2021/12/07 06:25:32;;;;;;;65.18;36.05;;;;;;;-0.97;100.00;100761.38;4877369;29;20100;-76
2021/12/07 06:27:58;;;;;;;63.92;35.53;;;;;;;-0.93;100.00;100762.88;4893865;29;20093;-75
2021/12/07 06:30:23;;;;;;;65.05;36.38;;;;;;;-0.92;100.00;100761.13;4878404;29;20048;-76
2021/12/07 06:32:49;;;;;;;67.85;36.58;;;;;;;-0.90;100.00;100767.91;4878332;29;20048;-76
2021/12/07 06:35:14;;;;;;;65.03;36.10;;;;;;;-0.88;100.00;100765.25;4905319;29;20053;-76
2021/12/07 06:37:40;;;;;;;63.65;36.25;;;;;;;-0.96;100.00;100762.19;4895054;29;20060;-77
2021/12/07 06:40:08;;;;;;;66.03;35.15;;;;;;;-0.94;100.00;100762.97;4878078;29;20119;-76
2021/12/07 06:42:36;;;;;;;60.30;33.33;;;;;;;-0.93;100.00;100762.06;4893121;29;20131;-75
2021/12/07 06:45:02;;;;;;;65.63;35.13;;;;;;;-0.94;100.00;100771.53;4883810;29;20103;-76
2021/12/07 06:47:27;;;;;;;63.05;35.03;;;;;;;-0.94;100.00;100765.53;4874939;29;20062;-75
2021/12/07 06:49:53;;;;;;;65.72;36.10;;;;;;;-0.91;100.00;100768.81;4881749;29;20047;-75
2021/12/07 06:52:18;;;;;;;64.55;35.78;;;;;;;-1.04;100.00;100757.41;4893551;29;20463;-76
2021/12/07 06:54:44;;;;;;;65.60;35.88;;;;;;;-0.98;100.00;100767.41;4894199;29;20060;-76
2021/12/07 06:57:09;;;;;;;61.33;35.33;;;;;;;-0.90;100.00;100773.06;4875431;29;20484;-75
2021/12/07 06:59:35;;;;;;;66.95;35.42;;;;;;;-0.89;100.00;100774.72;4890943;29;20040;-76
2021/12/07 07:02:01;;;;;;;67.35;35.28;;;;;;;-0.94;100.00;100771.53;4868579;29;20068;-76
2021/12/07 07:04:26;;;;;;;64.80;35.35;;;;;;;-0.93;100.00;100796.38;4874968;29;20036;-76
2021/12/07 07:06:52;;;;;;;66.72;36.58;;;;;;;-0.93;100.00;100791.22;4893753;29;20036;-76
2021/12/07 07:09:17;;;;;;;63.25;35.13;;;;;;;-0.88;100.00;100789.28;4878072;29;20400;-76
2021/12/07 07:11:43;;;;;;;64.55;35.72;;;;;;;-0.89;100.00;100786.75;4878652;29;20464;-76
2021/12/07 07:14:09;;;;;;;64.63;36.65;;;;;;;-0.93;100.00;100800.69;4877875;29;20047;-76
2021/12/07 07:16:35;;;;;;;66.18;35.67;;;;;;;-0.94;100.00;100797.28;4892770;29;20032;-76
2021/12/07 07:19:01;;;;;;;64.78;35.67;;;;;;;-0.91;100.00;100798.88;4893204;29;20055;-77
2021/12/07 07:21:26;;;;;;;63.05;34.75;;;;;;;-0.91;100.00;100797.13;4883190;29;20067;-75
2021/12/07 07:23:53;;;;;;;62.58;34.55;;;;;;;-0.89;100.00;100805.63;4877306;29;20037;-76
2021/12/07 07:26:19;;;;;;;66.57;35.60;;;;;;;-0.93;100.00;100809.25;4876016;29;20048;-76
2021/12/07 07:28:44;;;;;;;61.80;35.50;;;;;;;-1.01;100.00;100801.06;4877904;29;20555;-76
2021/12/07 07:31:11;;;;;;;61.85;34.15;;;;;;;-0.87;100.00;100816.69;4892247;29;20040;-76
2021/12/07 07:33:37;;;;;;;65.13;35.15;;;;;;;-0.89;100.00;100815.09;4877119;29;20056;-76
2021/12/07 07:36:04;;;;;;;61.67;34.53;;;;;;;-0.92;100.00;100813.50;4867481;29;20054;-76
2021/12/07 07:38:30;;;;;;;62.63;34.95;;;;;;;-0.88;100.00;100822.75;4891631;29;20043;-76
2021/12/07 07:40:55;;;;;;;68.85;36.53;;;;;;;-0.95;100.00;100816.22;4859836;29;20041;-76
2021/12/07 07:43:23;;;;;;;65.68;35.80;;;;;;;-0.91;100.00;100817.72;4867371;29;20135;-76
2021/12/07 07:45:55;;;;;;;62.40;34.08;;;;;;;-0.95;100.00;100828.25;4864941;29;20115;-77
2021/12/07 07:48:22;;;;;;;64.95;37.75;;;;;;;-0.96;100.00;100822.28;4875441;29;20044;-77
2021/12/07 07:50:51;;;;;;;67.43;35.95;;;;;;;-0.96;100.00;100822.28;4861565;29;20044;-76
2021/12/07 07:53:18;;;;;;;68.35;35.60;;;;;;;-0.94;100.00;100829.91;4904822;29;20044;-76
2021/12/07 07:55:43;;;;;;;70.13;37.08;;;;;;;-0.91;100.00;100828.03;4877021;29;20043;-76
2021/12/07 07:58:11;;;;;;;73.13;36.08;;;;;;;-0.91;100.00;100835.75;4888767;29;20048;-76
2021/12/07 08:00:39;;;;;;;65.78;35.22;;;;;;;-0.92;100.00;100830.66;4892608;29;20107;-75
2021/12/07 08:03:05;;;;;;;69.03;35.80;;;;;;;-0.89;100.00;100828.78;4890077;29;20032;-77
2021/12/07 08:05:31;;;;;;;66.20;36.08;;;;;;;-0.92;100.00;100831.53;4890599;29;20756;-76
2021/12/07 08:07:56;;;;;;;63.78;33.55;;;;;;;-0.87;100.00;100826.97;4892357;29;20060;-76
2021/12/07 08:10:31;;;;;;;69.22;36.15;;;;;;;-0.86;100.00;100823.50;4891860;29;20484;-75
2021/12/07 08:13:03;;;;;;;65.07;35.85;;;;;;;-0.88;100.00;100830.47;4886183;29;20036;-77
2021/12/07 08:15:32;;;;;;;67.97;36.30;;;;;;;-0.86;100.00;100827.84;4888735;29;20044;-76
2021/12/07 08:17:58;;;;;;;67.25;36.17;;;;;;;-0.86;100.00;100826.09;4875936;29;20040;-76
2021/12/07 08:20:27;;;;;;;64.43;35.35;;;;;;;-0.83;100.00;100831.09;4875323;29;20040;-77
2021/12/07 08:22:53;;;;;;;65.75;35.45;;;;;;;-0.83;100.00;100825.94;4877258;29;20465;-75
2021/12/07 08:25:18;;;;;;;66.75;35.50;;;;;;;-0.81;100.00;100834.44;4876871;29;20131;-75
2021/12/07 08:27:44;;;;;;;66.38;36.45;;;;;;;-0.84;100.00;100836.31;4889207;29;20067;-77
2021/12/07 08:30:12;;;;;;;69.13;36.42;;;;;;;-0.84;100.00;100841.47;4890005;29;20076;-75
2021/12/07 08:32:44;;;;;;;70.40;37.20;;;;;;;-0.76;100.00;100841.94;4890475;29;20059;-75
2021/12/07 08:35:14;;;;;;;71.57;37.60;;;;;;;-0.75;100.00;100843.63;4887702;29;20097;-75
2021/12/07 08:37:40;;;;;;;68.97;37.58;;;;;;;-0.68;100.00;100844.16;4885115;29;20036;-76
2021/12/07 08:40:09;;;;;;;72.88;38.50;;;;;;;-0.75;100.00;100846.19;4875645;29;20588;-76
2021/12/07 08:42:35;;;;;;;72.97;38.33;;;;;;;-0.70;100.00;100833.09;4891656;29;20040;-76
2021/12/07 08:45:01;;;;;;;68.90;36.08;;;;;;;-0.66;100.00;100838.03;4892833;29;20681;-76
2021/12/07 08:47:26;;;;;;;72.32;38.35;;;;;;;-0.62;100.00;100836.16;4891803;29;20044;-76
2021/12/07 08:49:54;;;;;;;69.93;38.20;;;;;;;-0.68;100.00;100845.00;4881312;29;20102;-75
2021/12/07 08:52:20;;;;;;;70.18;37.55;;;;;;;-0.70;100.00;100843.41;4876317;29;20043;-75
2021/12/07 08:59:55;;;;;;;72.97;39.33;;;;;;;-0.74;100.00;100862.47;4893373;29;20032;-75
2021/12/07 09:02:24;;;;;;;73.47;37.60;;;;;;;-0.74;100.00;100859.91;4893607;29;20044;-76
2021/12/07 09:04:53;;;;;;;74.95;39.13;;;;;;;-0.70;100.00;100857.09;4891517;29;20041;-76
2021/12/07 09:07:21;;;;;;;73.93;38.55;;;;;;;-0.77;100.00;100853.16;4886548;29;20048;-75
2021/12/07 09:09:46;;;;;;;74.10;40.10;;;;;;;-0.66;100.00;100860.38;4874203;29;20068;-76
2021/12/07 09:12:15;;;;;;;68.75;38.03;;;;;;;-0.58;100.00;100866.03;4875329;29;20127;-76
2021/12/07 09:14:42;;;;;;;70.60;38.72;;;;;;;-0.57;100.00;100870.25;4900528;29;20102;-75
2021/12/07 09:17:10;;;;;;;70.22;38.63;;;;;;;-0.57;100.00;100872.81;4889950;29;20032;-75
2021/12/07 09:19:36;;;;;;;67.50;36.65;;;;;;;-0.49;100.00;100881.06;4889631;29;20063;-75
2021/12/07 09:22:03;;;;;;;71.30;38.83;;;;;;;-0.43;100.00;100890.25;4889963;29;20500;-75
2021/12/07 09:24:29;;;;;;;73.82;39.55;;;;;;;-0.52;100.00;100888.91;4888315;29;20037;-76
2021/12/07 09:26:55;;;;;;;72.03;38.75;;;;;;;-0.47;100.00;100892.13;4890946;29;20528;-76
2021/12/07 09:29:21;;;;;;;70.78;37.95;;;;;;;-0.54;100.00;100890.72;4889189;29;20482;-75
2021/12/07 09:31:46;;;;;;;72.22;39.47;;;;;;;-0.49;100.00;100891.38;4891278;29;20041;-76
2021/12/07 09:34:12;;;;;;;71.60;37.63;;;;;;;-0.38;100.00;100895.16;4890691;29;20417;-75
2021/12/07 09:36:41;;;;;;;71.45;37.67;;;;;;;-0.37;100.00;100883.97;4859054;29;20036;-74
2021/12/07 09:39:09;;;;;;;70.85;37.58;;;;;;;-0.36;100.00;100891.59;4889852;29;20414;-76
2021/12/07 09:41:35;;;;;;;68.20;38.17;;;;;;;-0.36;100.00;100880.47;4889707;29;20042;-76
2021/12/07 09:44:01;;;;;;;69.65;37.90;;;;;;;-0.36;100.00;100886.44;4874918;29;20503;-75
2021/12/07 09:46:28;;;;;;;67.68;38.58;;;;;;;-0.31;100.00;100888.81;4873154;29;20049;-75
2021/12/07 09:48:53;;;;;;;70.80;37.78;;;;;;;-0.25;100.00;100896.25;4872205;29;20039;-74
2021/12/07 09:51:21;;;;;;;71.50;37.78;;;;;;;-0.32;100.00;100884.56;4863526;29;20036;-75
2021/12/07 09:53:49;;;;;;;69.32;38.60;;;;;;;-0.26;100.00;100876.56;4864361;29;20044;-75
2021/12/07 09:56:18;;;;;;;70.07;38.22;;;;;;;-0.33;100.00;100885.47;4865620;29;20127;-74
2021/12/07 09:58:44;;;;;;;73.10;38.92;;;;;;;-0.24;100.00;100891.03;4875188;29;20128;-76
2021/12/07 10:01:11;;;;;;;73.95;39.30;;;;;;;-0.27;100.00;100888.59;4887656;29;20043;-75
2021/12/07 10:03:38;;;;;;;69.40;37.65;;;;;;;-0.24;100.00;100885.88;4890015;29;20643;-75
2021/12/07 10:06:04;;;;;;;66.55;37.47;;;;;;;-0.24;100.00;100888.44;4887118;29;20051;-75
2021/12/07 10:08:30;;;;;;;74.10;37.88;;;;;;;-0.26;100.00;100885.13;4889570;29;20037;-75
2021/12/07 10:10:59;;;;;;;67.25;37.15;;;;;;;-0.18;100.00;100883.91;4888537;29;20032;-75
2021/12/07 10:13:27;;;;;;;63.75;35.83;;;;;;;-0.19;100.00;100883.06;4873949;29;20049;-74
2021/12/07 10:15:54;;;;;;;69.32;37.38;;;;;;;-0.15;100.00;100883.75;4890762;29;20040;-75
2021/12/07 10:18:33;;;;;;;66.53;37.10;;;;;;;-0.12;100.00;100881.03;4866959;29;20044;-75
2021/12/07 10:21:14;;;;;;;72.60;38.33;;;;;;;-0.16;100.00;100874.34;4889614;29;20064;-75
2021/12/07 10:23:46;;;;;;;71.47;37.78;;;;;;;-0.16;100.00;100877.75;4883984;29;20033;-75
2021/12/07 10:26:34;;;;;;;65.03;35.78;;;;;;;-0.22;100.00;100873.75;4889197;29;20100;-74
2021/12/07 10:29:13;;;;;;;69.60;37.55;;;;;;;-0.13;100.00;100864.72;4874748;29;20665;-76
2021/12/07 10:31:48;;;;;;;71.10;37.92;;;;;;;-0.18;100.00;100848.66;4873290;29;20108;-75
2021/12/07 10:34:20;;;;;;;64.97;36.25;;;;;;;-0.13;100.00;100857.00;4870441;29;20048;-75
2021/12/07 10:37:12;;;;;;;67.53;36.28;;;;;;;-0.10;100.00;100841.34;4889726;29;20043;-74
2021/12/07 10:39:44;;;;;;;68.07;36.85;;;;;;;-0.08;100.00;100834.38;4876033;29;20554;-75
2021/12/07 10:42:13;;;;;;;70.43;38.07;;;;;;;-0.11;100.00;100833.72;4892402;29;20144;-75
2021/12/07 10:44:41;;;;;;;64.40;35.55;;;;;;;-0.08;100.00;100829.22;4887369;29;20051;-75
2021/12/07 10:47:13;;;;;;;67.97;36.53;;;;;;;0.08;100.00;100838.81;4892170;29;20143;-75
2021/12/07 10:49:56;;;;;;;72.63;37.00;;;;;;;0.05;100.00;100839.75;4899540;29;20633;-74
2021/12/07 10:52:32;;;;;;;69.40;36.28;;;;;;;-0.05;100.00;100849.72;4875515;29;20059;-75
2021/12/07 10:55:09;;;;;;;60.80;35.80;;;;;;;-0.04;100.00;100853.13;4891376;29;20501;-74
2021/12/07 10:57:55;;;;;;;69.40;35.63;;;;;;;-0.02;100.00;100852.16;4879101;29;20820;-75
2021/12/07 11:00:27;;;;;;;67.25;37.42;;;;;;;0.03;100.00;100849.31;4876192;29;20052;-74
2021/12/07 11:02:59;;;;;;;63.17;36.15;;;;;;;0.07;100.00;100853.41;4892280;29;20060;-75
2021/12/07 11:05:31;;;;;;;69.90;36.72;;;;;;;0.14;100.00;100847.03;4889681;29;20044;-75
2021/12/07 11:08:00;;;;;;;64.38;34.50;;;;;;;0.30;100.00;100854.88;4882994;29;20044;-76
2021/12/07 11:10:30;;;;;;;66.38;34.47;;;;;;;0.28;100.00;100861.81;4892960;29;20037;-75
2021/12/07 11:15:26;;;;;;;64.43;35.90;;;;;;;0.24;100.00;100857.72;4890574;29;20049;-75
2021/12/07 11:17:56;;;;;;;62.05;35.45;;;;;;;0.28;100.00;100863.56;4892290;29;20032;-75
2021/12/07 11:20:22;;;;;;;64.70;35.35;;;;;;;0.22;100.00;100858.72;4861304;29;20456;-74
2021/12/07 11:22:59;;;;;;;63.45;35.38;;;;;;;0.25;100.00;100864.56;4876216;29;20044;-75
2021/12/07 11:25:53;;;;;;;64.07;35.50;;;;;;;0.29;100.00;100867.84;4891919;29;20037;-74
2021/12/07 11:31:34;;;;;;;62.60;34.63;;;;;;;0.43;100.00;100849.88;4876112;29;20050;-75
2021/12/07 11:34:11;;;;;;;58.88;34.05;;;;;;;0.36;100.00;100854.53;4886998;29;20488;-76
2021/12/07 11:36:52;;;;;;;60.85;34.50;;;;;;;0.33;100.00;100849.53;4893574;29;20109;-76
2021/12/07 11:39:48;;;;;;;65.28;35.15;;;;;;;0.44;100.00;100846.41;4892741;29;20047;-76
2021/12/07 11:42:24;;;;;;;63.13;34.65;;;;;;;0.62;100.00;100841.19;4877825;29;20150;-77
2021/12/07 11:45:10;;;;;;;59.45;32.70;;;;;;;0.69;100.00;100829.63;4877586;29;20104;-75
2021/12/07 11:47:46;;;;;;;60.10;33.78;;;;;;;0.69;100.00;100821.91;4877289;29;20535;-76
2021/12/07 11:50:20;;;;;;;59.88;33.80;;;;;;;0.72;100.00;100827.72;4891806;29;20057;-76
2021/12/07 11:52:48;;;;;;;55.63;33.45;;;;;;;0.67;100.00;100832.28;4882112;29;20568;-75
2021/12/07 11:55:14;;;;;;;56.00;32.35;;;;;;;0.62;100.00;100825.72;4887767;29;20051;-75
2021/12/07 11:57:40;;;;;;;59.17;33.10;;;;;;;0.65;100.00;100836.72;4874715;29;20630;-75
2021/12/07 12:00:10;;;;;;;58.15;32.70;;;;;;;0.71;100.00;100836.38;4875545;29;20082;-74
2021/12/07 12:02:37;;;;;;;58.30;33.33;;;;;;;0.69;100.00;100838.22;4891755;29;20050;-76
2021/12/07 12:05:05;;;;;;;55.40;32.45;;;;;;;0.70;100.00;100846.81;4854572;29;20120;-75
2021/12/07 12:07:31;;;;;;;60.90;33.08;;;;;;;0.69;100.00;100843.38;4890548;29;20085;-75
2021/12/07 12:09:56;;;;;;;58.33;32.33;;;;;;;0.64;100.00;100842.81;4876621;29;20032;-76
2021/12/07 12:12:34;;;;;;;55.75;33.22;;;;;;;0.64;100.00;100853.13;4891166;29;20513;-75
2021/12/07 12:15:37;;;;;;;60.22;34.65;;;;;;;0.64;100.00;100853.13;4883860;29;20037;-75
2021/12/07 12:18:22;;;;;;;56.78;33.55;;;;;;;0.54;100.00;100846.75;4902132;29;20040;-76
2021/12/07 12:21:01;;;;;;;56.58;32.92;;;;;;;0.52;100.00;100835.69;4886942;29;20655;-76
2021/12/07 12:23:45;;;;;;;54.70;32.28;;;;;;;0.49;100.00;100843.56;4890540;29;20060;-75
2021/12/07 12:26:11;;;;;;;62.70;33.58;;;;;;;0.46;100.00;100844.59;4874120;29;20040;-75
2021/12/07 12:28:41;;;;;;;57.95;33.80;;;;;;;0.49;100.00;100851.31;4888665;29;20146;-77
2021/12/07 12:31:08;;;;;;;63.85;34.97;;;;;;;0.45;100.00;100847.22;4870016;29;20123;-75
2021/12/07 12:33:47;;;;;;;56.65;32.58;;;;;;;0.42;100.00;100866.31;4874798;29;20428;-77
2021/12/07 12:36:13;;;;;;;58.33;34.10;;;;;;;0.48;100.00;100867.72;4887227;29;20044;-76
2021/12/07 12:38:46;;;;;;;60.72;34.08;;;;;;;0.50;100.00;100874.47;4889812;29;20036;-76
2021/12/07 12:41:14;;;;;;;61.03;33.63;;;;;;;0.48;100.00;100871.13;4890861;29;20044;-76
2021/12/07 12:43:50;;;;;;;58.20;33.25;;;;;;;0.52;100.00;100888.13;4876682;29;20359;-77
2021/12/07 12:46:21;;;;;;;57.15;33.75;;;;;;;0.51;100.00;100883.91;4885955;29;20055;-76
2021/12/07 12:48:59;;;;;;;59.08;34.47;;;;;;;0.57;100.00;100882.75;4876447;29;20696;-76
2021/12/07 12:51:30;;;;;;;57.53;32.88;;;;;;;0.52;100.00;100862.31;4891182;29;20053;-76
2021/12/07 12:53:56;;;;;;;57.53;33.95;;;;;;;0.48;100.00;100852.25;4875552;29;20055;-76
2021/12/07 12:56:25;;;;;;;58.97;33.67;;;;;;;0.45;100.00;100866.13;4874581;29;20128;-75
2021/12/07 12:59:02;;;;;;;61.80;34.45;;;;;;;0.47;100.00;100856.59;4891153;29;20033;-76